createdAt,value
2022-11-01T00:02:09.385Z,71.88
2022-11-01T00:04:36.419Z,73.59
2022-11-01T00:07:03.832Z,71.70
2022-11-01T00:09:30.766Z,71.60
2022-11-01T00:11:57.790Z,70.37
2022-11-01T00:14:24.807Z,70.27
2022-11-01T00:16:51.746Z,72.42
2022-11-01T00:19:18.760Z,73.14
2022-11-01T00:21:45.878Z,75.08
2022-11-01T00:24:12.812Z,74.92
2022-11-01T00:26:40.440Z,75.92
2022-11-01T00:29:07.384Z,78.27
2022-11-01T00:31:34.413Z,79.17
2022-11-01T00:34:03.955Z,79.99
2022-11-01T00:36:31.078Z,80.49
2022-11-01T00:38:58.097Z,79.70
2022-11-01T00:41:25.017Z,79.93
2022-11-01T00:43:51.950Z,78.35
2022-11-01T00:46:19.387Z,78.44
2022-11-01T00:48:46.320Z,78.76
2022-11-01T00:51:13.239Z,79.03
2022-11-01T00:53:40.230Z,79.24
2022-11-01T00:56:08.783Z,79.72
2022-11-01T00:58:35.927Z,80.02
2022-11-01T01:01:03.410Z,79.92
2022-11-01T01:03:30.736Z,79.15
2022-11-01T01:05:57.714Z,78.91
2022-11-01T01:08:25.413Z,79.17
2022-11-01T01:10:52.937Z,79.01
2022-11-01T01:13:21.144Z,79.63
2022-11-01T01:15:48.526Z,79.29
2022-11-01T01:18:15.800Z,79.45
2022-11-01T01:20:42.732Z,79.90
2022-11-01T01:23:09.598Z,79.84
2022-11-01T01:25:42.804Z,79.87
2022-11-01T01:28:10.372Z,78.66
2022-11-01T01:30:41.565Z,78.54
2022-11-01T01:33:09.933Z,78.95
2022-11-01T01:35:38.258Z,78.80
2022-11-01T01:38:06.396Z,78.65
2022-11-01T01:40:34.318Z,78.06
2022-11-01T01:43:01.278Z,77.94
2022-11-01T01:45:36.600Z,76.50
2022-11-01T01:48:18.942Z,76.26
2022-11-01T01:51:00.090Z,75.50
2022-11-01T01:53:31.588Z,76.15
2022-11-01T01:56:03.884Z,74.25
2022-11-01T01:58:35.819Z,74.33
2022-11-01T02:01:02.800Z,73.57
2022-11-01T02:03:33.097Z,73.51
2022-11-01T02:06:10.528Z,73.42
2022-11-01T02:08:42.109Z,73.74
2022-11-01T02:11:10.306Z,74.02
2022-11-01T02:13:37.969Z,74.13
2022-11-01T02:16:23.528Z,74.10
2022-11-01T02:19:11.998Z,73.94
2022-11-01T02:21:38.837Z,74.13
2022-11-01T02:24:27.449Z,73.87
2022-11-01T02:27:15.569Z,73.28
2022-11-01T02:29:54.377Z,73.39
2022-11-01T02:32:39.974Z,73.67
2022-11-01T02:35:15.733Z,74.18
2022-11-01T02:37:53.908Z,74.46
2022-11-01T02:40:33.530Z,74.25
2022-11-01T02:43:10.209Z,73.91
2022-11-01T02:45:42.034Z,73.99
2022-11-01T02:48:09.186Z,74.06
2022-11-01T02:50:50.759Z,74.13
2022-11-01T02:53:17.645Z,74.19
2022-11-01T02:58:22.190Z,74.63
2022-11-01T03:00:49.238Z,74.94
2022-11-01T03:03:22.160Z,75.05
2022-11-01T03:05:57.848Z,74.89
2022-11-01T03:08:47.103Z,74.80
2022-11-01T03:11:17.820Z,74.62
2022-11-01T03:14:00.898Z,74.51
2022-11-01T03:17:00.799Z,74.54
2022-11-01T03:19:49.428Z,74.31
2022-11-01T03:22:23.712Z,74.11
2022-11-01T03:25:02.383Z,74.36
2022-11-01T03:27:45.115Z,74.48
2022-11-01T03:30:14.970Z,74.25
2022-11-01T03:32:47.584Z,74.17
2022-11-01T03:35:24.250Z,74.07
2022-11-01T03:37:55.120Z,73.46
2022-11-01T03:40:25.175Z,73.54
2022-11-01T03:42:55.792Z,73.47
2022-11-01T03:45:25.833Z,72.95
2022-11-01T03:47:52.929Z,73.38
2022-11-01T03:50:24.476Z,73.13
2022-11-01T03:52:51.507Z,74.32
2022-11-01T03:55:19.927Z,73.56
2022-11-01T03:57:48.845Z,73.61
2022-11-01T04:00:19.211Z,72.56
2022-11-01T04:02:46.301Z,73.79
2022-11-01T04:05:13.436Z,73.18
2022-11-01T04:07:40.492Z,73.38
2022-11-01T04:10:08.245Z,73.41
2022-11-01T04:12:35.134Z,72.84
2022-11-01T04:15:21.072Z,73.01
2022-11-01T04:18:06.666Z,72.88
2022-11-01T04:20:34.084Z,73.18
2022-11-01T04:23:02.199Z,73.13
2022-11-01T04:25:30.452Z,73.10
2022-11-01T04:27:58.579Z,73.01
2022-11-01T04:30:27.496Z,73.10
2022-11-01T04:32:54.883Z,72.75
2022-11-01T04:35:23.141Z,73.67
2022-11-01T04:37:57.036Z,72.75
2022-11-01T04:40:24.596Z,72.92
2022-11-01T04:42:54.903Z,72.95
2022-11-01T04:45:22.096Z,73.04
2022-11-01T04:47:52.568Z,72.90
2022-11-01T04:50:20.496Z,72.94
2022-11-01T04:52:47.983Z,73.04
2022-11-01T04:55:14.971Z,73.09
2022-11-01T04:57:42.979Z,73.35
2022-11-01T05:00:12.781Z,73.27
2022-11-01T05:02:40.675Z,72.95
2022-11-01T05:05:09.275Z,74.12
2022-11-01T05:07:36.212Z,72.98
2022-11-01T05:10:04.124Z,73.43
2022-11-01T05:12:31.338Z,73.21
2022-11-01T05:14:58.198Z,73.22
2022-11-01T05:17:25.349Z,73.34
2022-11-01T05:19:52.307Z,73.29
2022-11-01T05:22:19.261Z,73.38
2022-11-01T05:24:46.278Z,73.05
2022-11-01T05:27:13.353Z,73.13
2022-11-01T05:29:40.324Z,73.20
2022-11-01T05:32:07.260Z,73.48
2022-11-01T05:34:34.158Z,73.16
2022-11-01T05:37:01.107Z,72.97
2022-11-01T05:39:28.286Z,73.54
2022-11-01T05:41:58.237Z,73.12
2022-11-01T05:44:28.702Z,72.94
2022-11-01T05:46:55.632Z,72.79
2022-11-01T05:49:22.798Z,72.50
2022-11-01T05:51:49.722Z,72.50
2022-11-01T05:54:16.680Z,72.43
2022-11-01T05:56:44.678Z,72.58
2022-11-01T05:59:11.648Z,72.06
2022-11-01T06:01:38.878Z,72.57
2022-11-01T06:04:05.904Z,72.54
2022-11-01T06:06:33.606Z,72.59
2022-11-01T06:09:00.762Z,72.49
2022-11-01T06:11:27.911Z,72.65
2022-11-01T06:13:56.808Z,72.39
2022-11-01T06:16:25.570Z,72.27
2022-11-01T06:18:53.170Z,72.13
2022-11-01T06:21:26.135Z,72.59
2022-11-01T06:23:57.139Z,72.11
2022-11-01T06:26:24.080Z,72.18
2022-11-01T06:28:51.229Z,72.09
2022-11-01T06:31:18.215Z,71.94
2022-11-01T06:33:45.138Z,71.85
2022-11-01T06:36:12.155Z,73.03
2022-11-01T06:38:39.031Z,71.90
2022-11-01T06:41:05.958Z,71.85
2022-11-01T06:43:32.864Z,71.64
2022-11-01T06:46:01.092Z,71.78
2022-11-01T06:48:28.871Z,71.61
2022-11-01T06:50:56.045Z,71.46
2022-11-01T06:53:24.533Z,71.24
2022-11-01T06:55:52.329Z,71.46
2022-11-01T06:58:19.312Z,71.09
2022-11-01T07:00:46.479Z,71.23
2022-11-01T07:03:14.719Z,71.09
2022-11-01T07:05:41.872Z,70.99
2022-11-01T07:08:11.773Z,71.04
2022-11-01T07:10:41.670Z,71.12
2022-11-01T07:13:11.707Z,70.25
2022-11-01T07:15:39.575Z,70.86
2022-11-01T07:18:08.453Z,70.42
2022-11-01T07:20:41.614Z,70.22
2022-11-01T07:23:15.029Z,70.27
2022-11-01T07:25:42.543Z,70.53
2022-11-01T07:28:09.971Z,71.99
2022-11-01T07:30:36.929Z,70.56
2022-11-01T07:33:05.365Z,70.00
2022-11-01T07:35:32.874Z,70.29
2022-11-01T07:38:03.836Z,70.79
2022-11-01T07:40:33.523Z,71.08
2022-11-01T07:43:01.179Z,70.46
2022-11-01T07:45:30.360Z,70.50
2022-11-01T07:48:06.642Z,69.95
2022-11-01T07:50:34.396Z,69.76
2022-11-01T07:53:06.348Z,69.80
2022-11-01T07:55:34.047Z,69.75
2022-11-01T07:58:01.322Z,69.84
2022-11-01T08:00:28.903Z,70.62
2022-11-01T08:03:24.125Z,69.93
2022-11-01T08:05:51.081Z,69.88
2022-11-01T08:08:18.176Z,69.85
2022-11-01T08:10:45.520Z,70.39
2022-11-01T08:13:25.315Z,70.37
2022-11-01T08:15:53.677Z,70.19
2022-11-01T08:18:22.702Z,70.02
2022-11-01T08:20:50.803Z,69.85
2022-11-01T08:23:18.067Z,69.83
2022-11-01T08:25:45.184Z,69.64
2022-11-01T08:28:18.298Z,70.30
2022-11-01T08:30:47.314Z,69.76
2022-11-01T08:33:14.888Z,69.38
2022-11-01T08:35:45.828Z,69.08
2022-11-01T08:38:15.894Z,68.09
2022-11-01T08:40:42.859Z,67.87
2022-11-01T08:43:10.227Z,67.80
2022-11-01T08:45:37.291Z,67.99
2022-11-01T08:48:05.389Z,68.14
2022-11-01T08:50:34.025Z,67.13
2022-11-01T08:53:27.016Z,66.97
2022-11-01T08:55:57.322Z,65.70
2022-11-01T08:58:25.077Z,65.99
2022-11-01T09:00:52.236Z,66.61
2022-11-01T09:03:19.149Z,67.06
2022-11-01T09:05:46.220Z,65.82
2022-11-01T09:08:13.174Z,65.86
2022-11-01T09:10:40.105Z,66.35
2022-11-01T09:13:07.695Z,66.29
2022-11-01T09:15:34.824Z,66.26
2022-11-01T09:18:06.239Z,66.53
2022-11-01T09:20:33.397Z,65.99
2022-11-01T09:23:00.916Z,65.45
2022-11-01T09:25:28.063Z,64.71
2022-11-01T09:27:57.317Z,63.98
2022-11-01T09:30:25.502Z,63.92
2022-11-01T09:32:52.578Z,63.87
2022-11-01T09:35:19.521Z,63.69
2022-11-01T09:37:46.677Z,63.84
2022-11-01T09:40:15.463Z,63.78
2022-11-01T09:42:44.741Z,63.71
2022-11-01T09:45:21.683Z,63.57
2022-11-01T09:47:54.130Z,63.20
2022-11-01T09:50:27.289Z,63.27
2022-11-01T09:52:55.594Z,63.42
2022-11-01T09:55:30.868Z,62.94
2022-11-01T09:58:09.263Z,62.46
2022-11-01T10:00:43.660Z,63.20
2022-11-01T10:03:34.600Z,63.11
2022-11-01T10:06:22.554Z,62.90
2022-11-01T10:09:07.656Z,63.54
2022-11-01T10:11:49.313Z,62.24
2022-11-01T10:14:36.136Z,62.70
2022-11-01T10:17:19.319Z,61.96
2022-11-01T10:19:50.906Z,62.29
2022-11-01T10:22:33.423Z,61.34
2022-11-01T10:25:23.155Z,61.30
2022-11-01T10:28:02.197Z,62.23
2022-11-01T10:30:34.913Z,61.97
2022-11-01T10:33:26.022Z,62.41
2022-11-01T10:36:02.944Z,62.23
2022-11-01T10:39:10.803Z,62.32
2022-11-01T10:41:42.521Z,62.82
2022-11-01T10:44:24.545Z,62.41
2022-11-01T10:46:53.226Z,62.66
2022-11-01T10:52:35.477Z,62.57
2022-11-01T10:55:03.552Z,62.88
2022-11-01T10:57:34.206Z,63.04
2022-11-01T11:00:06.604Z,62.72
2022-11-01T11:02:52.064Z,61.66
2022-11-01T11:05:20.809Z,62.51
2022-11-01T11:07:48.424Z,62.84
2022-11-01T11:10:24.426Z,62.73
2022-11-01T11:13:06.934Z,62.67
2022-11-01T11:15:42.143Z,62.53
2022-11-01T11:18:19.907Z,62.66
2022-11-01T11:20:52.497Z,62.31
2022-11-01T11:23:23.213Z,62.59
2022-11-01T11:25:50.940Z,62.36
2022-11-01T11:28:26.595Z,61.58
2022-11-01T11:30:53.817Z,62.64
2022-11-01T11:33:24.265Z,62.30
2022-11-01T11:35:58.278Z,62.34
2022-11-01T11:38:43.172Z,62.30
2022-11-01T11:41:12.369Z,62.59
2022-11-01T11:43:42.163Z,62.51
2022-11-01T11:46:21.163Z,63.23
2022-11-01T11:48:54.607Z,63.04
2022-11-01T11:51:22.755Z,63.36
2022-11-01T11:54:15.189Z,63.34
2022-11-01T11:56:42.258Z,63.36
2022-11-01T11:59:20.951Z,62.89
2022-11-01T12:01:48.409Z,63.63
2022-11-01T12:04:19.127Z,63.49
2022-11-01T12:06:46.859Z,64.02
2022-11-01T12:09:46.809Z,63.83
2022-11-01T12:12:26.676Z,64.22
2022-11-01T12:14:55.576Z,64.04
2022-11-01T12:17:35.028Z,63.90
2022-11-01T12:20:21.195Z,64.44
2022-11-01T12:23:00.434Z,64.16
2022-11-01T12:25:27.816Z,63.90
2022-11-01T12:28:14.601Z,64.05
2022-11-01T12:30:43.383Z,63.80
2022-11-01T12:33:24.867Z,63.47
2022-11-01T12:35:55.465Z,63.51
2022-11-01T12:39:07.905Z,62.70
2022-11-01T12:41:47.585Z,63.42
2022-11-01T12:44:38.198Z,63.19
2022-11-01T12:47:12.563Z,63.44
2022-11-01T12:49:45.882Z,63.21
2022-11-01T12:52:46.072Z,63.51
2022-11-01T12:55:15.344Z,63.66
2022-11-01T12:57:45.357Z,63.78
2022-11-01T13:00:17.379Z,63.54
2022-11-01T13:03:04.026Z,63.24
2022-11-01T13:05:42.788Z,63.40
2022-11-01T13:08:21.506Z,63.62
2022-11-01T13:10:52.401Z,63.97
2022-11-01T13:13:30.655Z,63.53
2022-11-01T13:16:15.561Z,64.13
2022-11-01T13:19:16.837Z,64.27
2022-11-01T13:21:55.989Z,64.34
2022-11-01T13:24:36.173Z,64.29
2022-11-01T13:27:03.093Z,64.11
2022-11-01T13:29:41.562Z,64.35
2022-11-01T13:32:45.578Z,63.99
2022-11-01T13:35:21.417Z,64.69
2022-11-01T13:38:00.673Z,64.72
2022-11-01T13:41:04.749Z,65.08
2022-11-01T13:44:00.030Z,65.51
2022-11-01T13:46:35.694Z,65.33
2022-11-01T13:49:09.119Z,65.17
2022-11-01T13:52:08.334Z,65.12
2022-11-01T13:54:43.707Z,65.49
2022-11-01T13:57:15.350Z,65.83
2022-11-01T13:59:45.206Z,65.81
2022-11-01T14:02:27.636Z,65.87
2022-11-01T14:04:56.152Z,66.19
2022-11-01T14:07:24.272Z,66.56
2022-11-01T14:09:56.019Z,66.79
2022-11-01T14:12:36.524Z,66.62
2022-11-01T14:15:15.432Z,66.38
2022-11-01T14:17:57.744Z,66.17
2022-11-01T14:20:31.699Z,66.71
2022-11-01T14:23:19.606Z,66.89
2022-11-01T14:25:47.074Z,66.28
2022-11-01T14:28:17.109Z,66.53
2022-11-01T14:30:53.555Z,66.35
2022-11-01T14:33:22.537Z,66.44
2022-11-01T14:35:56.247Z,66.45
2022-11-01T14:38:52.854Z,66.62
2022-11-01T14:41:22.065Z,66.58
2022-11-01T14:43:56.040Z,66.78
2022-11-01T14:46:28.923Z,67.25
2022-11-01T14:49:05.050Z,66.75
2022-11-01T14:51:47.571Z,67.14
2022-11-01T14:54:28.812Z,67.12
2022-11-01T14:56:57.965Z,67.07
2022-11-01T14:59:32.258Z,67.22
2022-11-01T15:02:03.279Z,67.24
2022-11-01T15:04:41.702Z,67.42
2022-11-01T15:07:31.473Z,66.96
2022-11-01T15:10:01.177Z,67.73
2022-11-01T15:12:33.715Z,67.42
2022-11-01T15:15:01.649Z,67.33
2022-11-01T15:17:35.561Z,67.07
2022-11-01T15:20:13.368Z,67.17
2022-11-01T15:22:42.694Z,67.41
2022-11-01T15:25:21.166Z,66.99
2022-11-01T15:27:49.887Z,67.05
2022-11-01T15:30:26.100Z,67.21
2022-11-01T15:33:13.851Z,67.42
2022-11-01T15:35:41.795Z,67.36
2022-11-01T15:38:20.614Z,67.47
2022-11-01T15:40:50.513Z,67.36
2022-11-01T15:43:27.574Z,67.16
2022-11-01T15:45:59.298Z,67.40
2022-11-01T15:48:30.879Z,67.48
2022-11-01T15:51:01.757Z,67.49
2022-11-01T15:53:31.143Z,67.17
2022-11-01T15:56:15.951Z,67.63
2022-11-01T16:01:30.002Z,67.74
2022-11-01T16:04:04.890Z,67.76
2022-11-01T16:06:47.003Z,67.39
2022-11-01T16:09:26.069Z,67.44
2022-11-01T16:11:57.708Z,67.77
2022-11-01T16:14:37.664Z,67.61
2022-11-01T16:17:26.621Z,67.77
2022-11-01T16:19:53.651Z,67.76
2022-11-01T16:22:37.040Z,67.97
2022-11-01T16:25:07.476Z,67.70
2022-11-01T16:27:37.620Z,68.08
2022-11-01T16:30:10.370Z,68.02
2022-11-01T16:32:37.672Z,67.89
2022-11-01T16:35:31.392Z,67.52
2022-11-01T16:37:58.458Z,67.87
2022-11-01T16:40:31.088Z,67.83
2022-11-01T16:42:59.704Z,67.85
2022-11-01T16:45:26.698Z,67.81
2022-11-01T16:47:59.458Z,68.18
2022-11-01T16:50:26.553Z,68.07
2022-11-01T16:52:53.838Z,67.90
2022-11-01T16:55:22.718Z,68.10
2022-11-01T16:57:53.419Z,68.15
2022-11-01T17:00:20.432Z,67.93
2022-11-01T17:02:48.066Z,67.87
2022-11-01T17:05:21.148Z,68.03
2022-11-01T17:07:48.130Z,68.35
2022-11-01T17:10:21.727Z,68.17
2022-11-01T17:12:48.715Z,68.39
2022-11-01T17:15:16.563Z,68.18
2022-11-01T17:17:45.792Z,68.48
2022-11-01T17:20:24.734Z,68.31
2022-11-01T17:22:53.790Z,68.66
2022-11-01T17:25:23.635Z,68.24
2022-11-01T17:27:51.890Z,68.27
2022-11-01T17:30:21.838Z,67.70
2022-11-01T17:32:48.819Z,68.22
2022-11-01T17:35:16.462Z,68.13
2022-11-01T17:37:43.503Z,68.27
2022-11-01T17:40:22.518Z,68.07
2022-11-01T17:42:49.456Z,68.22
2022-11-01T17:45:16.564Z,68.56
2022-11-01T17:47:43.964Z,68.44
2022-11-01T17:50:15.402Z,68.81
2022-11-01T17:52:43.140Z,68.58
2022-11-01T17:55:11.690Z,68.57
2022-11-01T17:57:43.636Z,68.81
2022-11-01T18:00:11.236Z,68.62
2022-11-01T18:02:41.411Z,68.79
2022-11-01T18:05:11.891Z,68.75
2022-11-01T18:07:44.175Z,69.08
2022-11-01T18:10:18.574Z,68.99
2022-11-01T18:13:11.765Z,69.11
2022-11-01T18:15:47.252Z,69.56
2022-11-01T18:18:22.429Z,69.34
2022-11-01T18:21:11.001Z,69.58
2022-11-01T18:23:41.992Z,69.48
2022-11-01T18:26:30.301Z,69.30
2022-11-01T18:29:13.634Z,69.42
2022-11-01T18:31:45.900Z,69.72
2022-11-01T18:34:34.653Z,69.78
2022-11-01T18:37:11.603Z,69.31
2022-11-01T18:39:44.563Z,69.54
2022-11-01T18:42:17.053Z,69.64
2022-11-01T18:44:44.654Z,69.39
2022-11-01T18:47:23.086Z,69.52
2022-11-01T18:49:51.093Z,69.58
2022-11-01T18:52:19.387Z,69.62
2022-11-01T18:54:56.564Z,69.60
2022-11-01T18:57:24.776Z,69.62
2022-11-01T18:59:53.608Z,69.24
2022-11-01T19:02:27.761Z,69.44
2022-11-01T19:05:14.283Z,69.72
2022-11-01T19:08:08.941Z,69.49
2022-11-01T19:10:28.741Z,69.01
2022-11-01T19:12:56.315Z,68.85
2022-11-01T19:15:30.829Z,69.46
2022-11-01T19:18:00.445Z,69.44
2022-11-01T19:20:34.661Z,69.68
2022-11-01T19:23:04.133Z,69.38
2022-11-01T19:25:33.346Z,69.75
2022-11-01T19:28:22.881Z,69.76
2022-11-01T19:30:51.407Z,69.69
2022-11-01T19:33:39.202Z,69.29
2022-11-01T19:36:19.601Z,69.28
2022-11-01T19:38:48.065Z,69.31
2022-11-01T19:41:35.412Z,69.21
2022-11-01T19:44:08.327Z,69.25
2022-11-01T19:46:37.217Z,69.27
2022-11-01T19:49:19.256Z,69.65
2022-11-01T19:51:46.493Z,69.42
2022-11-01T19:54:14.070Z,69.89
2022-11-01T19:56:41.156Z,69.89
2022-11-01T19:59:13.961Z,69.61
2022-11-01T20:01:45.457Z,69.79
2022-11-01T20:04:28.019Z,69.37
2022-11-01T20:07:02.000Z,69.63
2022-11-01T20:09:33.455Z,69.42
2022-11-01T20:12:00.356Z,69.82
2022-11-01T20:14:27.658Z,69.57
2022-11-01T20:16:54.638Z,69.44
2022-11-01T20:19:21.918Z,69.92
2022-11-01T20:21:48.843Z,69.50
2022-11-01T20:24:16.077Z,69.52
2022-11-01T20:26:43.429Z,70.13
2022-11-01T20:29:10.829Z,70.50
2022-11-01T20:31:37.833Z,70.38
2022-11-01T20:34:04.729Z,70.67
2022-11-01T20:36:31.805Z,70.46
2022-11-01T20:38:58.634Z,70.38
2022-11-01T20:41:25.479Z,70.70
2022-11-01T20:43:52.459Z,70.47
2022-11-01T20:46:19.448Z,70.45
2022-11-01T20:48:46.483Z,70.83
2022-11-01T20:51:13.914Z,70.74
2022-11-01T20:53:41.440Z,70.62
2022-11-01T20:56:09.221Z,70.80
2022-11-01T20:58:42.307Z,70.66
2022-11-01T21:01:27.377Z,70.14
2022-11-01T21:03:55.008Z,70.60
2022-11-01T21:06:24.162Z,70.59
2022-11-01T21:08:51.285Z,70.94
2022-11-01T21:11:43.881Z,70.71
2022-11-01T21:14:20.184Z,70.77
2022-11-01T21:16:52.904Z,70.91
2022-11-01T21:19:21.824Z,70.88
2022-11-01T21:21:53.803Z,70.55
2022-11-01T21:24:31.155Z,71.18
2022-11-01T21:27:24.660Z,71.17
2022-11-01T21:29:52.510Z,71.33
2022-11-01T21:32:34.650Z,71.33
2022-11-01T21:35:19.925Z,70.92
2022-11-01T21:37:54.456Z,71.39
2022-11-01T21:40:28.055Z,71.36
2022-11-01T21:42:56.253Z,71.65
2022-11-01T21:45:33.211Z,71.71
2022-11-01T21:48:04.668Z,71.57
2022-11-01T21:50:31.780Z,71.23
2022-11-01T21:52:58.688Z,70.97
2022-11-01T21:55:25.618Z,71.36
2022-11-01T21:57:52.557Z,71.47
2022-11-01T22:00:19.457Z,70.94
2022-11-01T22:02:46.419Z,71.39
2022-11-01T22:05:13.505Z,70.97
2022-11-01T22:07:40.431Z,70.77
2022-11-01T22:10:07.806Z,70.70
2022-11-01T22:12:34.743Z,71.26
2022-11-01T22:15:01.749Z,70.94
2022-11-01T22:17:30.281Z,70.89
2022-11-01T22:19:57.214Z,70.73
2022-11-01T22:22:24.187Z,70.96
2022-11-01T22:24:51.256Z,70.97
2022-11-01T22:27:18.237Z,71.31
2022-11-01T22:29:45.151Z,71.30
2022-11-01T22:32:12.294Z,71.29
2022-11-01T22:34:39.365Z,71.21
2022-11-01T22:37:12.706Z,71.41
2022-11-01T22:39:39.866Z,70.93
2022-11-01T22:42:13.427Z,71.01
2022-11-01T22:44:42.600Z,70.85
2022-11-01T22:47:21.977Z,71.18
2022-11-01T22:49:53.489Z,71.11
2022-11-01T22:52:38.998Z,71.23
2022-11-01T22:55:11.575Z,71.32
2022-11-01T22:58:03.267Z,71.53
2022-11-01T23:00:39.078Z,71.02
2022-11-01T23:03:20.725Z,71.25
2022-11-01T23:05:54.297Z,71.41
2022-11-01T23:08:26.785Z,71.48
2022-11-01T23:10:54.285Z,71.72
2022-11-01T23:13:52.164Z,71.47
2022-11-01T23:16:25.937Z,70.94
2022-11-01T23:18:57.601Z,71.04
2022-11-01T23:21:25.142Z,71.60
2022-11-01T23:23:52.222Z,71.25
2022-11-01T23:26:20.276Z,71.48
2022-11-01T23:28:55.590Z,71.66
2022-11-01T23:31:24.552Z,71.64
2022-11-01T23:33:52.447Z,71.34
2022-11-01T23:36:29.292Z,71.57
2022-11-01T23:39:01.734Z,71.69
2022-11-01T23:41:38.291Z,71.80
2022-11-01T23:44:32.917Z,71.41
2022-11-01T23:47:23.023Z,71.14
2022-11-01T23:50:11.531Z,71.29
2022-11-01T23:52:43.217Z,72.11
2022-11-01T23:55:31.945Z,71.75
2022-11-01T23:58:12.002Z,71.48
